< < Back
Terminal Aerodrome Forecast


Current Version              Previous Versions:   1  2  3  4  5  6  7  8  9  

Terminal Aerodrome Forecast

292
FTUS42 KTAE 312320
TAFDHN
TAF
KDHN 312320Z 0100/0124 22007KT P6SM VCTS BKN050CB BKN200
      TEMPO 0100/0102 VRB15G25KT 3SM TSRA BKN040CB
     FM010400 00000KT P6SM SCT200
     FM011500 15005KT P6SM SCT040=



Latest METAR

327
SAUS70 KWBC 312300 RRJ
MTRDHN
METAR KDHN 312253Z 01009KT 5SM TSRA BKN070 OVC100 23/17 A2996 RMK AO2 PK
WND 22028/2159 LTG DSNT N AND SE AND NW RAE04B45 SLP139 P0005
T02330167


USA.gov is the U.S. government's official web portal to all federal, state and local government web resources and services.